sensor_id;sensor_type;location;lat;lon;timestamp;P1;durP1;ratioP1;P2;durP2;ratioP2
28760;SDS011;15917;50.014;8.352;2023-08-24T00:02:00;10.05;;;2.42;;
28760;SDS011;15917;50.014;8.352;2023-08-24T00:04:27;4.03;;;2.13;;
28760;SDS011;15917;50.014;8.352;2023-08-24T00:06:53;8.98;;;2.80;;
28760;SDS011;15917;50.014;8.352;2023-08-24T00:09:19;10.43;;;2.60;;
28760;SDS011;15917;50.014;8.352;2023-08-24T00:11:45;9.90;;;2.35;;
28760;SDS011;15917;50.014;8.352;2023-08-24T00:14:10;6.50;;;2.28;;
28760;SDS011;15917;50.014;8.352;2023-08-24T00:16:36;4.95;;;2.38;;
28760;SDS011;15917;50.014;8.352;2023-08-24T00:19:02;7.10;;;2.50;;
28760;SDS011;15917;50.014;8.352;2023-08-24T00:21:27;5.63;;;1.90;;
28760;SDS011;15917;50.014;8.352;2023-08-24T00:23:53;8.27;;;2.10;;
28760;SDS011;15917;50.014;8.352;2023-08-24T00:26:19;3.63;;;1.92;;
28760;SDS011;15917;50.014;8.352;2023-08-24T00:28:45;6.35;;;2.22;;
28760;SDS011;15917;50.014;8.352;2023-08-24T00:31:11;5.70;;;2.10;;
28760;SDS011;15917;50.014;8.352;2023-08-24T00:33:37;10.82;;;2.53;;
28760;SDS011;15917;50.014;8.352;2023-08-24T00:36:03;9.80;;;3.00;;
28760;SDS011;15917;50.014;8.352;2023-08-24T00:38:30;7.00;;;2.28;;
28760;SDS011;15917;50.014;8.352;2023-08-24T00:40:57;10.43;;;3.00;;
28760;SDS011;15917;50.014;8.352;2023-08-24T00:43:24;6.53;;;2.10;;
28760;SDS011;15917;50.014;8.352;2023-08-24T00:45:51;8.68;;;2.75;;
28760;SDS011;15917;50.014;8.352;2023-08-24T00:48:18;5.15;;;2.42;;
28760;SDS011;15917;50.014;8.352;2023-08-24T00:50:44;7.03;;;1.98;;
28760;SDS011;15917;50.014;8.352;2023-08-24T00:53:10;5.90;;;2.08;;
28760;SDS011;15917;50.014;8.352;2023-08-24T00:55:36;9.15;;;2.42;;
28760;SDS011;15917;50.014;8.352;2023-08-24T00:58:02;11.48;;;2.47;;
28760;SDS011;15917;50.014;8.352;2023-08-24T01:00:28;16.88;;;2.83;;
28760;SDS011;15917;50.014;8.352;2023-08-24T01:02:54;7.90;;;2.08;;
28760;SDS011;15917;50.014;8.352;2023-08-24T01:05:20;7.43;;;2.33;;
28760;SDS011;15917;50.014;8.352;2023-08-24T01:07:46;7.43;;;2.60;;
28760;SDS011;15917;50.014;8.352;2023-08-24T01:10:12;5.30;;;2.15;;
28760;SDS011;15917;50.014;8.352;2023-08-24T01:12:48;6.80;;;2.30;;
28760;SDS011;15917;50.014;8.352;2023-08-24T01:15:37;8.13;;;1.92;;
28760;SDS011;15917;50.014;8.352;2023-08-24T01:18:25;4.10;;;2.00;;
28760;SDS011;15917;50.014;8.352;2023-08-24T01:20:53;9.15;;;2.25;;
28760;SDS011;15917;50.014;8.352;2023-08-24T01:26:19;3.85;;;1.80;;
28760;SDS011;15917;50.014;8.352;2023-08-24T01:28:46;6.35;;;1.65;;
28760;SDS011;15917;50.014;8.352;2023-08-24T01:31:15;7.25;;;2.08;;
28760;SDS011;15917;50.014;8.352;2023-08-24T01:33:42;8.52;;;2.17;;
28760;SDS011;15917;50.014;8.352;2023-08-24T01:36:09;8.45;;;2.10;;
28760;SDS011;15917;50.014;8.352;2023-08-24T01:38:37;9.65;;;2.15;;
28760;SDS011;15917;50.014;8.352;2023-08-24T01:41:09;7.25;;;1.98;;
28760;SDS011;15917;50.014;8.352;2023-08-24T01:43:38;3.35;;;1.70;;
28760;SDS011;15917;50.014;8.352;2023-08-24T01:46:05;8.80;;;2.38;;
28760;SDS011;15917;50.014;8.352;2023-08-24T01:48:33;7.82;;;2.17;;
28760;SDS011;15917;50.014;8.352;2023-08-24T01:51:00;9.27;;;2.47;;
28760;SDS011;15917;50.014;8.352;2023-08-24T01:53:32;7.50;;;2.88;;
28760;SDS011;15917;50.014;8.352;2023-08-24T01:55:58;4.68;;;1.80;;
28760;SDS011;15917;50.014;8.352;2023-08-24T01:58:24;2.45;;;1.90;;
28760;SDS011;15917;50.014;8.352;2023-08-24T02:00:49;5.80;;;2.28;;
28760;SDS011;15917;50.014;8.352;2023-08-24T02:03:15;5.03;;;1.92;;
28760;SDS011;15917;50.014;8.352;2023-08-24T02:05:40;6.53;;;2.00;;
28760;SDS011;15917;50.014;8.352;2023-08-24T02:08:06;5.53;;;2.00;;
28760;SDS011;15917;50.014;8.352;2023-08-24T02:10:32;4.05;;;2.65;;
28760;SDS011;15917;50.014;8.352;2023-08-24T02:12:57;6.53;;;2.45;;
28760;SDS011;15917;50.014;8.352;2023-08-24T02:15:23;3.47;;;1.90;;
28760;SDS011;15917;50.014;8.352;2023-08-24T02:17:49;7.63;;;1.95;;
28760;SDS011;15917;50.014;8.352;2023-08-24T02:20:15;6.53;;;2.35;;
28760;SDS011;15917;50.014;8.352;2023-08-24T02:22:41;8.45;;;1.98;;
28760;SDS011;15917;50.014;8.352;2023-08-24T02:25:07;7.60;;;2.05;;
28760;SDS011;15917;50.014;8.352;2023-08-24T02:30:00;4.53;;;2.00;;
28760;SDS011;15917;50.014;8.352;2023-08-24T02:32:25;5.40;;;2.42;;
28760;SDS011;15917;50.014;8.352;2023-08-24T02:34:51;3.33;;;2.20;;
28760;SDS011;15917;50.014;8.352;2023-08-24T02:37:17;7.13;;;2.10;;
28760;SDS011;15917;50.014;8.352;2023-08-24T02:39:42;8.05;;;2.03;;
28760;SDS011;15917;50.014;8.352;2023-08-24T02:42:08;3.85;;;2.15;;
28760;SDS011;15917;50.014;8.352;2023-08-24T02:44:34;6.82;;;2.45;;
28760;SDS011;15917;50.014;8.352;2023-08-24T02:46:59;4.57;;;1.98;;
28760;SDS011;15917;50.014;8.352;2023-08-24T02:49:25;7.07;;;2.42;;
28760;SDS011;15917;50.014;8.352;2023-08-24T02:51:51;4.13;;;2.00;;
28760;SDS011;15917;50.014;8.352;2023-08-24T02:54:16;5.60;;;2.20;;
28760;SDS011;15917;50.014;8.352;2023-08-24T02:56:42;10.57;;;2.50;;
28760;SDS011;15917;50.014;8.352;2023-08-24T02:59:07;9.88;;;2.50;;
28760;SDS011;15917;50.014;8.352;2023-08-24T03:01:33;7.65;;;2.90;;
28760;SDS011;15917;50.014;8.352;2023-08-24T03:03:59;13.38;;;2.80;;
28760;SDS011;15917;50.014;8.352;2023-08-24T03:06:25;5.45;;;2.50;;
28760;SDS011;15917;50.014;8.352;2023-08-24T03:08:50;9.27;;;2.97;;
28760;SDS011;15917;50.014;8.352;2023-08-24T03:11:16;8.57;;;2.92;;
28760;SDS011;15917;50.014;8.352;2023-08-24T03:13:42;12.27;;;3.33;;
28760;SDS011;15917;50.014;8.352;2023-08-24T03:16:08;4.35;;;2.80;;
28760;SDS011;15917;50.014;8.352;2023-08-24T03:18:35;8.77;;;2.87;;
28760;SDS011;15917;50.014;8.352;2023-08-24T03:21:03;6.05;;;3.03;;
28760;SDS011;15917;50.014;8.352;2023-08-24T03:23:31;8.23;;;3.13;;
28760;SDS011;15917;50.014;8.352;2023-08-24T03:25:57;7.78;;;3.42;;
28760;SDS011;15917;50.014;8.352;2023-08-24T03:28:24;8.17;;;3.53;;
28760;SDS011;15917;50.014;8.352;2023-08-24T03:30:50;8.90;;;2.72;;
28760;SDS011;15917;50.014;8.352;2023-08-24T03:33:17;7.47;;;3.15;;
28760;SDS011;15917;50.014;8.352;2023-08-24T03:35:43;9.27;;;3.17;;
28760;SDS011;15917;50.014;8.352;2023-08-24T03:38:09;13.30;;;2.95;;
28760;SDS011;15917;50.014;8.352;2023-08-24T03:40:34;12.43;;;5.25;;
28760;SDS011;15917;50.014;8.352;2023-08-24T03:43:01;5.93;;;2.58;;
28760;SDS011;15917;50.014;8.352;2023-08-24T03:45:27;6.75;;;3.10;;
28760;SDS011;15917;50.014;8.352;2023-08-24T03:47:53;9.35;;;3.28;;
28760;SDS011;15917;50.014;8.352;2023-08-24T03:50:19;9.40;;;3.38;;
28760;SDS011;15917;50.014;8.352;2023-08-24T03:52:47;13.00;;;4.53;;
28760;SDS011;15917;50.014;8.352;2023-08-24T03:57:42;6.85;;;2.75;;
28760;SDS011;15917;50.014;8.352;2023-08-24T04:00:08;8.05;;;3.33;;
28760;SDS011;15917;50.014;8.352;2023-08-24T04:02:40;10.38;;;3.33;;
28760;SDS011;15917;50.014;8.352;2023-08-24T04:07:33;6.15;;;2.95;;
28760;SDS011;15917;50.014;8.352;2023-08-24T04:10:01;10.18;;;3.55;;
28760;SDS011;15917;50.014;8.352;2023-08-24T04:12:30;14.70;;;2.88;;
28760;SDS011;15917;50.014;8.352;2023-08-24T04:14:56;7.45;;;2.70;;
28760;SDS011;15917;50.014;8.352;2023-08-24T04:17:22;8.45;;;2.72;;
28760;SDS011;15917;50.014;8.352;2023-08-24T04:19:48;10.90;;;2.85;;
28760;SDS011;15917;50.014;8.352;2023-08-24T04:22:14;9.85;;;2.50;;
28760;SDS011;15917;50.014;8.352;2023-08-24T04:24:40;7.95;;;2.67;;
28760;SDS011;15917;50.014;8.352;2023-08-24T04:27:06;5.97;;;3.10;;
28760;SDS011;15917;50.014;8.352;2023-08-24T04:29:31;10.73;;;2.78;;
28760;SDS011;15917;50.014;8.352;2023-08-24T04:31:57;9.20;;;2.95;;
28760;SDS011;15917;50.014;8.352;2023-08-24T04:34:22;12.85;;;2.63;;
28760;SDS011;15917;50.014;8.352;2023-08-24T04:36:48;8.45;;;2.53;;
28760;SDS011;15917;50.014;8.352;2023-08-24T04:39:14;6.43;;;2.75;;
28760;SDS011;15917;50.014;8.352;2023-08-24T04:41:40;7.95;;;2.75;;
28760;SDS011;15917;50.014;8.352;2023-08-24T04:44:06;13.27;;;2.88;;
28760;SDS011;15917;50.014;8.352;2023-08-24T04:46:33;6.80;;;2.80;;
28760;SDS011;15917;50.014;8.352;2023-08-24T04:48:59;6.32;;;2.75;;
28760;SDS011;15917;50.014;8.352;2023-08-24T04:51:24;7.72;;;2.95;;
28760;SDS011;15917;50.014;8.352;2023-08-24T04:53:52;13.07;;;2.80;;
28760;SDS011;15917;50.014;8.352;2023-08-24T04:56:18;7.38;;;2.47;;
28760;SDS011;15917;50.014;8.352;2023-08-24T04:58:54;4.95;;;2.40;;
28760;SDS011;15917;50.014;8.352;2023-08-24T05:01:22;11.27;;;3.00;;
28760;SDS011;15917;50.014;8.352;2023-08-24T05:03:48;7.57;;;2.42;;
28760;SDS011;15917;50.014;8.352;2023-08-24T05:06:13;5.93;;;2.47;;
28760;SDS011;15917;50.014;8.352;2023-08-24T05:08:39;6.80;;;2.67;;
28760;SDS011;15917;50.014;8.352;2023-08-24T05:11:16;9.55;;;2.67;;
28760;SDS011;15917;50.014;8.352;2023-08-24T05:16:09;7.88;;;2.78;;
28760;SDS011;15917;50.014;8.352;2023-08-24T05:18:35;5.00;;;3.13;;
28760;SDS011;15917;50.014;8.352;2023-08-24T05:21:01;11.55;;;4.30;;
28760;SDS011;15917;50.014;8.352;2023-08-24T05:23:28;8.32;;;2.97;;
28760;SDS011;15917;50.014;8.352;2023-08-24T05:25:55;11.13;;;3.00;;
28760;SDS011;15917;50.014;8.352;2023-08-24T05:28:22;8.23;;;3.40;;
28760;SDS011;15917;50.014;8.352;2023-08-24T05:30:47;15.25;;;3.60;;
28760;SDS011;15917;50.014;8.352;2023-08-24T05:33:13;17.23;;;3.42;;
28760;SDS011;15917;50.014;8.352;2023-08-24T05:35:39;14.38;;;3.88;;
28760;SDS011;15917;50.014;8.352;2023-08-24T05:38:05;15.00;;;4.18;;
28760;SDS011;15917;50.014;8.352;2023-08-24T05:40:33;10.70;;;4.00;;
28760;SDS011;15917;50.014;8.352;2023-08-24T05:42:59;15.82;;;3.67;;
28760;SDS011;15917;50.014;8.352;2023-08-24T05:45:24;16.55;;;4.07;;
28760;SDS011;15917;50.014;8.352;2023-08-24T05:47:50;11.48;;;3.72;;
28760;SDS011;15917;50.014;8.352;2023-08-24T05:50:16;15.60;;;3.92;;
28760;SDS011;15917;50.014;8.352;2023-08-24T05:52:41;20.50;;;4.07;;
28760;SDS011;15917;50.014;8.352;2023-08-24T05:55:07;13.50;;;4.88;;
28760;SDS011;15917;50.014;8.352;2023-08-24T05:57:33;16.17;;;3.92;;
28760;SDS011;15917;50.014;8.352;2023-08-24T05:59:58;10.32;;;4.43;;
28760;SDS011;15917;50.014;8.352;2023-08-24T06:02:24;14.25;;;4.68;;
28760;SDS011;15917;50.014;8.352;2023-08-24T06:04:49;23.20;;;5.35;;
28760;SDS011;15917;50.014;8.352;2023-08-24T06:07:16;12.45;;;4.45;;
28760;SDS011;15917;50.014;8.352;2023-08-24T06:09:42;11.43;;;4.72;;
28760;SDS011;15917;50.014;8.352;2023-08-24T06:12:07;14.40;;;4.50;;
28760;SDS011;15917;50.014;8.352;2023-08-24T06:14:33;12.32;;;4.57;;
28760;SDS011;15917;50.014;8.352;2023-08-24T06:16:59;26.13;;;4.75;;
28760;SDS011;15917;50.014;8.352;2023-08-24T06:19:24;14.85;;;4.65;;
28760;SDS011;15917;50.014;8.352;2023-08-24T06:21:50;13.63;;;4.05;;
28760;SDS011;15917;50.014;8.352;2023-08-24T06:24:15;15.88;;;4.45;;
28760;SDS011;15917;50.014;8.352;2023-08-24T06:26:41;28.60;;;4.72;;
28760;SDS011;15917;50.014;8.352;2023-08-24T06:29:07;22.30;;;5.25;;
28760;SDS011;15917;50.014;8.352;2023-08-24T06:31:32;20.88;;;4.55;;
28760;SDS011;15917;50.014;8.352;2023-08-24T06:33:58;17.23;;;4.28;;
28760;SDS011;15917;50.014;8.352;2023-08-24T06:36:24;19.70;;;4.50;;
28760;SDS011;15917;50.014;8.352;2023-08-24T06:38:49;23.60;;;5.18;;
28760;SDS011;15917;50.014;8.352;2023-08-24T06:41:15;26.00;;;5.97;;
28760;SDS011;15917;50.014;8.352;2023-08-24T06:43:41;19.90;;;4.45;;
28760;SDS011;15917;50.014;8.352;2023-08-24T06:46:06;16.83;;;4.35;;
28760;SDS011;15917;50.014;8.352;2023-08-24T06:48:33;21.30;;;3.97;;
28760;SDS011;15917;50.014;8.352;2023-08-24T06:50:59;11.48;;;4.35;;
28760;SDS011;15917;50.014;8.352;2023-08-24T06:53:25;15.73;;;4.25;;
28760;SDS011;15917;50.014;8.352;2023-08-24T06:55:57;10.93;;;4.18;;
28760;SDS011;15917;50.014;8.352;2023-08-24T06:58:23;9.52;;;3.45;;
28760;SDS011;15917;50.014;8.352;2023-08-24T07:00:49;13.82;;;3.92;;
28760;SDS011;15917;50.014;8.352;2023-08-24T07:03:19;12.77;;;3.65;;
28760;SDS011;15917;50.014;8.352;2023-08-24T07:05:45;14.13;;;4.25;;
28760;SDS011;15917;50.014;8.352;2023-08-24T07:08:12;16.08;;;3.70;;
28760;SDS011;15917;50.014;8.352;2023-08-24T07:13:05;6.70;;;3.05;;
28760;SDS011;15917;50.014;8.352;2023-08-24T07:15:32;7.45;;;3.00;;
28760;SDS011;15917;50.014;8.352;2023-08-24T07:18:00;8.57;;;3.17;;
28760;SDS011;15917;50.014;8.352;2023-08-24T07:20:26;14.00;;;3.08;;
28760;SDS011;15917;50.014;8.352;2023-08-24T07:22:52;9.57;;;2.63;;
28760;SDS011;15917;50.014;8.352;2023-08-24T07:25:19;6.75;;;2.80;;
28760;SDS011;15917;50.014;8.352;2023-08-24T07:27:46;8.27;;;2.80;;
28760;SDS011;15917;50.014;8.352;2023-08-24T07:30:13;9.48;;;3.30;;
28760;SDS011;15917;50.014;8.352;2023-08-24T07:32:38;8.63;;;3.13;;
28760;SDS011;15917;50.014;8.352;2023-08-24T07:35:04;7.93;;;3.25;;
28760;SDS011;15917;50.014;8.352;2023-08-24T07:37:31;10.35;;;3.25;;
28760;SDS011;15917;50.014;8.352;2023-08-24T07:39:57;18.38;;;3.50;;
28760;SDS011;15917;50.014;8.352;2023-08-24T07:42:22;17.23;;;3.75;;
28760;SDS011;15917;50.014;8.352;2023-08-24T07:44:48;12.73;;;3.67;;
28760;SDS011;15917;50.014;8.352;2023-08-24T07:47:14;11.65;;;3.72;;
28760;SDS011;15917;50.014;8.352;2023-08-24T07:49:40;13.73;;;4.10;;
28760;SDS011;15917;50.014;8.352;2023-08-24T07:52:09;15.60;;;4.20;;
28760;SDS011;15917;50.014;8.352;2023-08-24T07:54:38;12.48;;;3.78;;
28760;SDS011;15917;50.014;8.352;2023-08-24T07:57:06;18.88;;;3.50;;
28760;SDS011;15917;50.014;8.352;2023-08-24T07:59:32;11.70;;;4.10;;
28760;SDS011;15917;50.014;8.352;2023-08-24T08:01:58;13.18;;;3.95;;
28760;SDS011;15917;50.014;8.352;2023-08-24T08:04:23;12.00;;;4.30;;
28760;SDS011;15917;50.014;8.352;2023-08-24T08:06:49;7.72;;;3.80;;
28760;SDS011;15917;50.014;8.352;2023-08-24T08:09:14;11.80;;;3.88;;
28760;SDS011;15917;50.014;8.352;2023-08-24T08:11:41;16.00;;;4.57;;
28760;SDS011;15917;50.014;8.352;2023-08-24T08:14:08;8.68;;;3.95;;
28760;SDS011;15917;50.014;8.352;2023-08-24T08:16:34;12.35;;;4.10;;
28760;SDS011;15917;50.014;8.352;2023-08-24T08:19:01;14.50;;;4.22;;
28760;SDS011;15917;50.014;8.352;2023-08-24T08:21:27;9.23;;;3.67;;
28760;SDS011;15917;50.014;8.352;2023-08-24T08:23:53;13.82;;;5.22;;
28760;SDS011;15917;50.014;8.352;2023-08-24T08:26:18;14.32;;;4.32;;
28760;SDS011;15917;50.014;8.352;2023-08-24T08:28:44;9.05;;;4.30;;
28760;SDS011;15917;50.014;8.352;2023-08-24T08:31:09;9.18;;;4.18;;
28760;SDS011;15917;50.014;8.352;2023-08-24T08:33:35;14.80;;;4.10;;
28760;SDS011;15917;50.014;8.352;2023-08-24T08:36:01;10.98;;;3.65;;
28760;SDS011;15917;50.014;8.352;2023-08-24T08:38:28;10.17;;;3.77;;
28760;SDS011;15917;50.014;8.352;2023-08-24T08:40:54;11.65;;;3.78;;
28760;SDS011;15917;50.014;8.352;2023-08-24T08:43:22;8.07;;;3.53;;
28760;SDS011;15917;50.014;8.352;2023-08-24T08:45:49;6.78;;;4.00;;
28760;SDS011;15917;50.014;8.352;2023-08-24T08:48:15;12.20;;;3.45;;
28760;SDS011;15917;50.014;8.352;2023-08-24T08:50:41;12.48;;;4.18;;
28760;SDS011;15917;50.014;8.352;2023-08-24T08:53:07;17.48;;;3.47;;
28760;SDS011;15917;50.014;8.352;2023-08-24T08:55:32;15.38;;;4.10;;
28760;SDS011;15917;50.014;8.352;2023-08-24T08:57:59;9.77;;;3.50;;
28760;SDS011;15917;50.014;8.352;2023-08-24T09:00:27;22.02;;;3.10;;
28760;SDS011;15917;50.014;8.352;2023-08-24T09:02:53;9.98;;;3.40;;
28760;SDS011;15917;50.014;8.352;2023-08-24T09:05:20;14.43;;;3.03;;
28760;SDS011;15917;50.014;8.352;2023-08-24T09:07:46;10.80;;;3.33;;
28760;SDS011;15917;50.014;8.352;2023-08-24T09:10:12;12.50;;;3.08;;
28760;SDS011;15917;50.014;8.352;2023-08-24T09:12:38;4.93;;;2.30;;
28760;SDS011;15917;50.014;8.352;2023-08-24T09:15:05;11.70;;;3.17;;
28760;SDS011;15917;50.014;8.352;2023-08-24T09:17:34;6.45;;;2.53;;
28760;SDS011;15917;50.014;8.352;2023-08-24T09:20:00;14.98;;;3.85;;
28760;SDS011;15917;50.014;8.352;2023-08-24T09:22:35;7.55;;;2.38;;
28760;SDS011;15917;50.014;8.352;2023-08-24T09:25:01;10.20;;;2.77;;
28760;SDS011;15917;50.014;8.352;2023-08-24T09:27:29;12.43;;;3.10;;
28760;SDS011;15917;50.014;8.352;2023-08-24T09:29:55;10.85;;;2.78;;
28760;SDS011;15917;50.014;8.352;2023-08-24T09:32:24;14.90;;;2.75;;
28760;SDS011;15917;50.014;8.352;2023-08-24T09:34:53;10.20;;;4.20;;
28760;SDS011;15917;50.014;8.352;2023-08-24T09:37:19;10.43;;;3.70;;
28760;SDS011;15917;50.014;8.352;2023-08-24T09:39:45;8.68;;;3.08;;
28760;SDS011;15917;50.014;8.352;2023-08-24T09:42:12;10.77;;;3.50;;
28760;SDS011;15917;50.014;8.352;2023-08-24T09:44:44;11.13;;;3.47;;
28760;SDS011;15917;50.014;8.352;2023-08-24T09:47:11;9.50;;;3.28;;
28760;SDS011;15917;50.014;8.352;2023-08-24T09:49:36;13.95;;;3.45;;
28760;SDS011;15917;50.014;8.352;2023-08-24T09:52:02;10.30;;;3.42;;
28760;SDS011;15917;50.014;8.352;2023-08-24T09:54:32;11.38;;;3.33;;
28760;SDS011;15917;50.014;8.352;2023-08-24T09:57:04;6.72;;;2.47;;
28760;SDS011;15917;50.014;8.352;2023-08-24T09:59:32;4.65;;;2.20;;
28760;SDS011;15917;50.014;8.352;2023-08-24T10:02:00;8.43;;;2.88;;
28760;SDS011;15917;50.014;8.352;2023-08-24T10:04:32;9.23;;;2.92;;
28760;SDS011;15917;50.014;8.352;2023-08-24T10:06:59;7.82;;;2.70;;
28760;SDS011;15917;50.014;8.352;2023-08-24T10:09:31;11.48;;;2.40;;
28760;SDS011;15917;50.014;8.352;2023-08-24T10:12:04;5.85;;;2.72;;
28760;SDS011;15917;50.014;8.352;2023-08-24T10:14:34;12.27;;;2.50;;
28760;SDS011;15917;50.014;8.352;2023-08-24T10:17:09;3.80;;;2.30;;
28760;SDS011;15917;50.014;8.352;2023-08-24T10:19:36;11.38;;;2.22;;
28760;SDS011;15917;50.014;8.352;2023-08-24T10:22:02;5.40;;;2.20;;
28760;SDS011;15917;50.014;8.352;2023-08-24T10:24:28;10.07;;;2.47;;
28760;SDS011;15917;50.014;8.352;2023-08-24T10:26:56;9.05;;;3.45;;
28760;SDS011;15917;50.014;8.352;2023-08-24T10:29:22;8.57;;;2.63;;
28760;SDS011;15917;50.014;8.352;2023-08-24T10:31:49;8.45;;;2.67;;
28760;SDS011;15917;50.014;8.352;2023-08-24T10:34:15;5.70;;;2.72;;
28760;SDS011;15917;50.014;8.352;2023-08-24T10:36:41;4.22;;;2.65;;
28760;SDS011;15917;50.014;8.352;2023-08-24T10:39:07;11.60;;;2.58;;
28760;SDS011;15917;50.014;8.352;2023-08-24T10:41:48;7.47;;;2.83;;
28760;SDS011;15917;50.014;8.352;2023-08-24T10:44:19;9.18;;;2.50;;
28760;SDS011;15917;50.014;8.352;2023-08-24T10:52:21;11.38;;;3.25;;
28760;SDS011;15917;50.014;8.352;2023-08-24T10:54:53;5.47;;;2.50;;
28760;SDS011;15917;50.014;8.352;2023-08-24T10:57:20;7.03;;;2.38;;
28760;SDS011;15917;50.014;8.352;2023-08-24T10:59:59;9.65;;;2.92;;
28760;SDS011;15917;50.014;8.352;2023-08-24T11:02:52;6.95;;;2.13;;
28760;SDS011;15917;50.014;8.352;2023-08-24T11:05:25;5.45;;;2.33;;
28760;SDS011;15917;50.014;8.352;2023-08-24T11:10:26;4.28;;;2.13;;
28760;SDS011;15917;50.014;8.352;2023-08-24T11:13:09;7.15;;;2.45;;
28760;SDS011;15917;50.014;8.352;2023-08-24T11:18:15;11.77;;;2.78;;
28760;SDS011;15917;50.014;8.352;2023-08-24T11:20:54;4.15;;;2.35;;
28760;SDS011;15917;50.014;8.352;2023-08-24T11:23:29;7.93;;;2.78;;
28760;SDS011;15917;50.014;8.352;2023-08-24T11:25:56;7.78;;;2.30;;
28760;SDS011;15917;50.014;8.352;2023-08-24T11:28:24;6.15;;;2.22;;
28760;SDS011;15917;50.014;8.352;2023-08-24T11:30:51;6.70;;;2.28;;
28760;SDS011;15917;50.014;8.352;2023-08-24T11:33:18;7.40;;;2.72;;
28760;SDS011;15917;50.014;8.352;2023-08-24T11:35:53;4.57;;;2.45;;
28760;SDS011;15917;50.014;8.352;2023-08-24T11:38:19;12.40;;;3.05;;
28760;SDS011;15917;50.014;8.352;2023-08-24T11:40:45;6.20;;;2.67;;
28760;SDS011;15917;50.014;8.352;2023-08-24T11:43:10;5.30;;;2.70;;
28760;SDS011;15917;50.014;8.352;2023-08-24T11:45:36;3.95;;;2.35;;
28760;SDS011;15917;50.014;8.352;2023-08-24T11:48:04;6.38;;;2.53;;
28760;SDS011;15917;50.014;8.352;2023-08-24T11:50:29;5.18;;;2.65;;
28760;SDS011;15917;50.014;8.352;2023-08-24T11:52:56;4.95;;;2.00;;
28760;SDS011;15917;50.014;8.352;2023-08-24T11:55:22;5.45;;;2.70;;
28760;SDS011;15917;50.014;8.352;2023-08-24T11:57:48;11.75;;;2.78;;
28760;SDS011;15917;50.014;8.352;2023-08-24T12:00:14;9.45;;;2.72;;
28760;SDS011;15917;50.014;8.352;2023-08-24T12:02:41;10.88;;;2.85;;
28760;SDS011;15917;50.014;8.352;2023-08-24T12:05:08;3.80;;;2.33;;
28760;SDS011;15917;50.014;8.352;2023-08-24T12:07:45;12.50;;;3.63;;
28760;SDS011;15917;50.014;8.352;2023-08-24T12:10:11;21.05;;;3.28;;
28760;SDS011;15917;50.014;8.352;2023-08-24T12:12:37;19.13;;;3.23;;
28760;SDS011;15917;50.014;8.352;2023-08-24T12:15:03;9.48;;;3.53;;
28760;SDS011;15917;50.014;8.352;2023-08-24T12:17:30;11.52;;;2.83;;
28760;SDS011;15917;50.014;8.352;2023-08-24T12:19:59;5.53;;;2.85;;
28760;SDS011;15917;50.014;8.352;2023-08-24T12:22:26;8.98;;;3.08;;
28760;SDS011;15917;50.014;8.352;2023-08-24T12:24:52;7.78;;;3.10;;
28760;SDS011;15917;50.014;8.352;2023-08-24T12:27:22;9.50;;;2.60;;
28760;SDS011;15917;50.014;8.352;2023-08-24T12:29:48;10.73;;;2.67;;
28760;SDS011;15917;50.014;8.352;2023-08-24T12:32:14;13.45;;;2.75;;
28760;SDS011;15917;50.014;8.352;2023-08-24T12:34:41;5.90;;;2.40;;
28760;SDS011;15917;50.014;8.352;2023-08-24T12:37:08;5.10;;;2.73;;
28760;SDS011;15917;50.014;8.352;2023-08-24T12:39:35;6.63;;;2.40;;
28760;SDS011;15917;50.014;8.352;2023-08-24T12:42:01;6.30;;;3.22;;
28760;SDS011;15917;50.014;8.352;2023-08-24T12:44:28;14.57;;;2.70;;
28760;SDS011;15917;50.014;8.352;2023-08-24T12:46:53;9.23;;;2.65;;
28760;SDS011;15917;50.014;8.352;2023-08-24T12:49:19;5.22;;;2.40;;
28760;SDS011;15917;50.014;8.352;2023-08-24T12:51:44;5.97;;;3.13;;
28760;SDS011;15917;50.014;8.352;2023-08-24T12:54:11;9.00;;;2.55;;
28760;SDS011;15917;50.014;8.352;2023-08-24T12:56:37;4.97;;;2.60;;
28760;SDS011;15917;50.014;8.352;2023-08-24T12:59:04;8.27;;;2.50;;
28760;SDS011;15917;50.014;8.352;2023-08-24T13:01:30;12.20;;;2.72;;
28760;SDS011;15917;50.014;8.352;2023-08-24T13:03:55;6.22;;;3.08;;
28760;SDS011;15917;50.014;8.352;2023-08-24T13:06:21;8.65;;;2.70;;
28760;SDS011;15917;50.014;8.352;2023-08-24T13:08:47;6.90;;;2.90;;
28760;SDS011;15917;50.014;8.352;2023-08-24T13:11:12;5.13;;;2.40;;
28760;SDS011;15917;50.014;8.352;2023-08-24T13:13:38;6.78;;;2.83;;
28760;SDS011;15917;50.014;8.352;2023-08-24T13:16:03;8.35;;;2.55;;
28760;SDS011;15917;50.014;8.352;2023-08-24T13:18:29;9.48;;;2.67;;
28760;SDS011;15917;50.014;8.352;2023-08-24T13:20:54;8.52;;;2.38;;
28760;SDS011;15917;50.014;8.352;2023-08-24T13:23:20;6.70;;;2.40;;
28760;SDS011;15917;50.014;8.352;2023-08-24T13:25:46;5.93;;;2.20;;
28760;SDS011;15917;50.014;8.352;2023-08-24T13:28:11;10.85;;;3.38;;
28760;SDS011;15917;50.014;8.352;2023-08-24T13:30:37;5.93;;;2.53;;
28760;SDS011;15917;50.014;8.352;2023-08-24T13:33:03;4.90;;;2.30;;
28760;SDS011;15917;50.014;8.352;2023-08-24T13:35:28;5.47;;;2.88;;
28760;SDS011;15917;50.014;8.352;2023-08-24T13:37:54;9.10;;;2.45;;
28760;SDS011;15917;50.014;8.352;2023-08-24T13:40:20;5.45;;;3.05;;
28760;SDS011;15917;50.014;8.352;2023-08-24T13:42:45;7.95;;;2.58;;
28760;SDS011;15917;50.014;8.352;2023-08-24T13:45:11;7.60;;;2.65;;
28760;SDS011;15917;50.014;8.352;2023-08-24T13:47:36;8.43;;;2.65;;
28760;SDS011;15917;50.014;8.352;2023-08-24T13:50:02;7.10;;;2.70;;
28760;SDS011;15917;50.014;8.352;2023-08-24T13:52:28;11.95;;;2.92;;
28760;SDS011;15917;50.014;8.352;2023-08-24T13:54:54;8.75;;;2.85;;
28760;SDS011;15917;50.014;8.352;2023-08-24T13:57:19;6.45;;;2.80;;
28760;SDS011;15917;50.014;8.352;2023-08-24T13:59:45;7.28;;;3.25;;
28760;SDS011;15917;50.014;8.352;2023-08-24T14:02:10;10.27;;;3.00;;
28760;SDS011;15917;50.014;8.352;2023-08-24T14:04:37;11.07;;;3.58;;
28760;SDS011;15917;50.014;8.352;2023-08-24T14:07:03;5.68;;;2.83;;
28760;SDS011;15917;50.014;8.352;2023-08-24T14:09:29;5.03;;;2.35;;
28760;SDS011;15917;50.014;8.352;2023-08-24T14:11:54;5.75;;;3.03;;
28760;SDS011;15917;50.014;8.352;2023-08-24T14:14:21;9.45;;;2.30;;
28760;SDS011;15917;50.014;8.352;2023-08-24T14:16:46;11.63;;;3.45;;
28760;SDS011;15917;50.014;8.352;2023-08-24T14:19:13;7.07;;;2.80;;
28760;SDS011;15917;50.014;8.352;2023-08-24T14:21:38;8.63;;;3.10;;
28760;SDS011;15917;50.014;8.352;2023-08-24T14:24:04;5.88;;;2.80;;
28760;SDS011;15917;50.014;8.352;2023-08-24T14:26:30;9.05;;;3.22;;
28760;SDS011;15917;50.014;8.352;2023-08-24T14:28:56;7.28;;;4.22;;
28760;SDS011;15917;50.014;8.352;2023-08-24T14:31:26;12.73;;;2.78;;
28760;SDS011;15917;50.014;8.352;2023-08-24T14:33:54;15.52;;;3.33;;
28760;SDS011;15917;50.014;8.352;2023-08-24T14:36:20;14.93;;;3.35;;
28760;SDS011;15917;50.014;8.352;2023-08-24T14:38:46;7.55;;;3.10;;
28760;SDS011;15917;50.014;8.352;2023-08-24T14:41:14;16.33;;;3.47;;
28760;SDS011;15917;50.014;8.352;2023-08-24T14:43:40;8.10;;;3.22;;
28760;SDS011;15917;50.014;8.352;2023-08-24T14:46:06;7.50;;;3.70;;
28760;SDS011;15917;50.014;8.352;2023-08-24T14:48:32;11.57;;;3.03;;
28760;SDS011;15917;50.014;8.352;2023-08-24T14:50:58;5.22;;;3.15;;
28760;SDS011;15917;50.014;8.352;2023-08-24T14:53:24;8.98;;;3.65;;
28760;SDS011;15917;50.014;8.352;2023-08-24T14:55:50;10.98;;;4.22;;
28760;SDS011;15917;50.014;8.352;2023-08-24T14:58:19;6.45;;;3.08;;
28760;SDS011;15917;50.014;8.352;2023-08-24T15:00:46;8.95;;;3.28;;
28760;SDS011;15917;50.014;8.352;2023-08-24T15:03:12;11.20;;;3.25;;
28760;SDS011;15917;50.014;8.352;2023-08-24T15:05:41;6.35;;;3.05;;
28760;SDS011;15917;50.014;8.352;2023-08-24T15:08:08;12.20;;;3.17;;